sensor_id;sensor_type;location;lat;lon;timestamp;temperature;humidity
40622;DHT22;26324;52.040;11.528;2023-05-29T00:00:38;14.80;62.80
40622;DHT22;26324;52.040;11.528;2023-05-29T00:03:05;14.70;62.70
40622;DHT22;26324;52.040;11.528;2023-05-29T00:05:33;14.60;63.00
40622;DHT22;26324;52.040;11.528;2023-05-29T00:08:01;14.60;62.60
40622;DHT22;26324;52.040;11.528;2023-05-29T00:10:28;14.60;62.70
40622;DHT22;26324;52.040;11.528;2023-05-29T00:12:55;14.60;62.80
40622;DHT22;26324;52.040;11.528;2023-05-29T00:15:23;14.60;62.40
40622;DHT22;26324;52.040;11.528;2023-05-29T00:17:51;14.60;62.70
40622;DHT22;26324;52.040;11.528;2023-05-29T00:20:19;14.70;62.70
40622;DHT22;26324;52.040;11.528;2023-05-29T00:22:47;14.60;62.70
40622;DHT22;26324;52.040;11.528;2023-05-29T00:25:15;14.50;62.80
40622;DHT22;26324;52.040;11.528;2023-05-29T00:27:43;14.20;63.70
40622;DHT22;26324;52.040;11.528;2023-05-29T00:30:11;14.00;63.90
40622;DHT22;26324;52.040;11.528;2023-05-29T00:32:38;13.90;64.40
40622;DHT22;26324;52.040;11.528;2023-05-29T00:35:07;13.90;64.50
40622;DHT22;26324;52.040;11.528;2023-05-29T00:37:36;13.90;64.80
40622;DHT22;26324;52.040;11.528;2023-05-29T00:40:04;13.80;64.90
40622;DHT22;26324;52.040;11.528;2023-05-29T00:42:31;13.70;64.80
40622;DHT22;26324;52.040;11.528;2023-05-29T00:44:59;13.70;65.10
40622;DHT22;26324;52.040;11.528;2023-05-29T00:47:27;13.70;65.20
40622;DHT22;26324;52.040;11.528;2023-05-29T00:49:56;13.60;65.50
40622;DHT22;26324;52.040;11.528;2023-05-29T00:52:26;13.50;65.70
40622;DHT22;26324;52.040;11.528;2023-05-29T00:54:56;13.40;66.00
40622;DHT22;26324;52.040;11.528;2023-05-29T00:57:24;13.40;66.30
40622;DHT22;26324;52.040;11.528;2023-05-29T00:59:52;13.30;66.50
40622;DHT22;26324;52.040;11.528;2023-05-29T01:02:21;13.40;67.00
40622;DHT22;26324;52.040;11.528;2023-05-29T01:04:50;13.40;66.70
40622;DHT22;26324;52.040;11.528;2023-05-29T01:07:21;13.30;66.80
40622;DHT22;26324;52.040;11.528;2023-05-29T01:09:48;13.30;66.80
40622;DHT22;26324;52.040;11.528;2023-05-29T01:12:32;13.30;67.30
40622;DHT22;26324;52.040;11.528;2023-05-29T01:15:10;13.30;67.30
40622;DHT22;26324;52.040;11.528;2023-05-29T01:18:05;13.20;67.50
40622;DHT22;26324;52.040;11.528;2023-05-29T01:20:52;13.20;68.00
40622;DHT22;26324;52.040;11.528;2023-05-29T01:26:48;13.00;68.20
40622;DHT22;26324;52.040;11.528;2023-05-29T01:29:19;12.80;68.70
40622;DHT22;26324;52.040;11.528;2023-05-29T01:31:49;12.70;69.10
40622;DHT22;26324;52.040;11.528;2023-05-29T01:34:17;12.80;69.00
40622;DHT22;26324;52.040;11.528;2023-05-29T01:36:45;12.70;68.80
40622;DHT22;26324;52.040;11.528;2023-05-29T01:39:13;12.70;69.20
40622;DHT22;26324;52.040;11.528;2023-05-29T01:41:43;12.90;68.60
40622;DHT22;26324;52.040;11.528;2023-05-29T01:44:12;13.00;68.30
40622;DHT22;26324;52.040;11.528;2023-05-29T01:46:43;13.00;68.30
40622;DHT22;26324;52.040;11.528;2023-05-29T01:49:13;12.80;68.50
40622;DHT22;26324;52.040;11.528;2023-05-29T01:51:42;12.70;68.90
40622;DHT22;26324;52.040;11.528;2023-05-29T01:54:10;12.60;69.30
40622;DHT22;26324;52.040;11.528;2023-05-29T01:56:38;12.50;69.50
40622;DHT22;26324;52.040;11.528;2023-05-29T01:59:06;12.50;69.90
40622;DHT22;26324;52.040;11.528;2023-05-29T02:01:33;12.30;69.90
40622;DHT22;26324;52.040;11.528;2023-05-29T02:04:01;12.30;70.10
40622;DHT22;26324;52.040;11.528;2023-05-29T02:06:29;12.30;70.50
40622;DHT22;26324;52.040;11.528;2023-05-29T02:08:56;12.30;70.30
40622;DHT22;26324;52.040;11.528;2023-05-29T02:11:23;12.40;70.40
40622;DHT22;26324;52.040;11.528;2023-05-29T02:13:51;12.50;69.90
40622;DHT22;26324;52.040;11.528;2023-05-29T02:16:18;12.40;69.60
40622;DHT22;26324;52.040;11.528;2023-05-29T02:18:48;12.40;69.70
40622;DHT22;26324;52.040;11.528;2023-05-29T02:21:15;12.30;69.80
40622;DHT22;26324;52.040;11.528;2023-05-29T02:23:43;12.10;69.80
40622;DHT22;26324;52.040;11.528;2023-05-29T02:26:12;12.00;70.10
40622;DHT22;26324;52.040;11.528;2023-05-29T02:28:41;11.80;70.60
40622;DHT22;26324;52.040;11.528;2023-05-29T02:31:08;11.70;71.00
40622;DHT22;26324;52.040;11.528;2023-05-29T02:33:36;11.60;71.50
40622;DHT22;26324;52.040;11.528;2023-05-29T02:36:04;11.50;72.00
40622;DHT22;26324;52.040;11.528;2023-05-29T02:38:31;11.40;72.30
40622;DHT22;26324;52.040;11.528;2023-05-29T02:40:59;11.30;72.50
40622;DHT22;26324;52.040;11.528;2023-05-29T02:43:27;11.20;72.60
40622;DHT22;26324;52.040;11.528;2023-05-29T02:45:54;11.20;73.00
40622;DHT22;26324;52.040;11.528;2023-05-29T02:48:22;11.20;73.10
40622;DHT22;26324;52.040;11.528;2023-05-29T02:50:50;11.20;72.90
40622;DHT22;26324;52.040;11.528;2023-05-29T02:53:17;11.20;72.90
40622;DHT22;26324;52.040;11.528;2023-05-29T02:55:45;11.10;73.00
40622;DHT22;26324;52.040;11.528;2023-05-29T02:58:14;11.10;73.20
40622;DHT22;26324;52.040;11.528;2023-05-29T03:00:43;11.10;73.30
40622;DHT22;26324;52.040;11.528;2023-05-29T03:03:10;11.10;73.70
40622;DHT22;26324;52.040;11.528;2023-05-29T03:05:39;11.10;73.80
40622;DHT22;26324;52.040;11.528;2023-05-29T03:08:06;11.10;73.90
40622;DHT22;26324;52.040;11.528;2023-05-29T03:10:35;11.10;73.90
40622;DHT22;26324;52.040;11.528;2023-05-29T03:13:02;11.00;74.20
40622;DHT22;26324;52.040;11.528;2023-05-29T03:15:31;11.10;74.10
40622;DHT22;26324;52.040;11.528;2023-05-29T03:17:59;11.10;74.10
40622;DHT22;26324;52.040;11.528;2023-05-29T03:20:30;11.00;74.10
40622;DHT22;26324;52.040;11.528;2023-05-29T03:22:59;11.10;74.30
40622;DHT22;26324;52.040;11.528;2023-05-29T03:25:29;11.10;74.30
40622;DHT22;26324;52.040;11.528;2023-05-29T03:27:57;11.10;74.30
40622;DHT22;26324;52.040;11.528;2023-05-29T03:30:25;11.10;74.40
40622;DHT22;26324;52.040;11.528;2023-05-29T03:32:54;11.00;74.30
40622;DHT22;26324;52.040;11.528;2023-05-29T03:35:33;11.00;74.30
40622;DHT22;26324;52.040;11.528;2023-05-29T03:38:01;11.00;74.20
40622;DHT22;26324;52.040;11.528;2023-05-29T03:40:28;10.90;74.60
40622;DHT22;26324;52.040;11.528;2023-05-29T03:42:57;10.90;75.10
40622;DHT22;26324;52.040;11.528;2023-05-29T03:45:24;10.70;75.50
40622;DHT22;26324;52.040;11.528;2023-05-29T03:47:53;10.90;75.70
40622;DHT22;26324;52.040;11.528;2023-05-29T03:50:21;11.00;75.40
40622;DHT22;26324;52.040;11.528;2023-05-29T03:52:49;11.10;75.20
40622;DHT22;26324;52.040;11.528;2023-05-29T03:55:17;11.10;75.20
40622;DHT22;26324;52.040;11.528;2023-05-29T03:57:44;11.10;75.20
40622;DHT22;26324;52.040;11.528;2023-05-29T04:00:13;11.10;75.20
40622;DHT22;26324;52.040;11.528;2023-05-29T04:02:41;11.10;75.00
40622;DHT22;26324;52.040;11.528;2023-05-29T04:05:09;11.10;75.10
40622;DHT22;26324;52.040;11.528;2023-05-29T04:07:38;11.10;75.30
40622;DHT22;26324;52.040;11.528;2023-05-29T04:10:10;11.30;75.40
40622;DHT22;26324;52.040;11.528;2023-05-29T04:12:38;11.20;75.60
40622;DHT22;26324;52.040;11.528;2023-05-29T04:15:06;11.20;75.80
40622;DHT22;26324;52.040;11.528;2023-05-29T04:17:34;11.30;76.20
40622;DHT22;26324;52.040;11.528;2023-05-29T04:20:02;11.50;75.90
40622;DHT22;26324;52.040;11.528;2023-05-29T04:22:36;11.60;75.80
40622;DHT22;26324;52.040;11.528;2023-05-29T04:25:05;11.60;75.60
40622;DHT22;26324;52.040;11.528;2023-05-29T04:27:32;11.70;75.60
40622;DHT22;26324;52.040;11.528;2023-05-29T04:30:16;11.80;75.60
40622;DHT22;26324;52.040;11.528;2023-05-29T04:32:46;11.70;75.90
40622;DHT22;26324;52.040;11.528;2023-05-29T04:35:14;11.60;76.30
40622;DHT22;26324;52.040;11.528;2023-05-29T04:37:50;11.50;77.40
40622;DHT22;26324;52.040;11.528;2023-05-29T04:40:18;11.40;77.80
40622;DHT22;26324;52.040;11.528;2023-05-29T04:42:48;11.40;78.20
40622;DHT22;26324;52.040;11.528;2023-05-29T04:45:19;11.50;78.40
40622;DHT22;26324;52.040;11.528;2023-05-29T04:47:47;11.60;78.50
40622;DHT22;26324;52.040;11.528;2023-05-29T04:50:17;11.50;78.80
40622;DHT22;26324;52.040;11.528;2023-05-29T04:52:48;11.50;79.40
40622;DHT22;26324;52.040;11.528;2023-05-29T04:55:16;11.50;79.40
40622;DHT22;26324;52.040;11.528;2023-05-29T04:57:43;11.50;79.60
40622;DHT22;26324;52.040;11.528;2023-05-29T05:00:21;11.50;79.50
40622;DHT22;26324;52.040;11.528;2023-05-29T05:02:49;11.60;79.70
40622;DHT22;26324;52.040;11.528;2023-05-29T05:05:17;11.70;79.80
40622;DHT22;26324;52.040;11.528;2023-05-29T05:07:44;11.80;79.30
40622;DHT22;26324;52.040;11.528;2023-05-29T05:10:12;11.90;79.00
40622;DHT22;26324;52.040;11.528;2023-05-29T05:12:42;12.00;78.70
40622;DHT22;26324;52.040;11.528;2023-05-29T05:15:12;12.10;77.80
40622;DHT22;26324;52.040;11.528;2023-05-29T05:17:40;12.30;78.10
40622;DHT22;26324;52.040;11.528;2023-05-29T05:20:08;12.50;77.90
40622;DHT22;26324;52.040;11.528;2023-05-29T05:22:40;12.60;77.50
40622;DHT22;26324;52.040;11.528;2023-05-29T05:25:08;12.60;77.20
40622;DHT22;26324;52.040;11.528;2023-05-29T05:27:37;12.80;77.10
40622;DHT22;26324;52.040;11.528;2023-05-29T05:30:05;13.00;77.10
40622;DHT22;26324;52.040;11.528;2023-05-29T05:32:35;13.10;75.70
40622;DHT22;26324;52.040;11.528;2023-05-29T05:35:06;13.20;75.70
40622;DHT22;26324;52.040;11.528;2023-05-29T05:37:34;13.40;75.00
40622;DHT22;26324;52.040;11.528;2023-05-29T05:40:04;13.50;74.40
40622;DHT22;26324;52.040;11.528;2023-05-29T05:42:34;13.60;74.40
40622;DHT22;26324;52.040;11.528;2023-05-29T05:45:08;13.60;74.00
40622;DHT22;26324;52.040;11.528;2023-05-29T05:47:35;13.60;73.20
40622;DHT22;26324;52.040;11.528;2023-05-29T05:50:04;13.80;73.30
40622;DHT22;26324;52.040;11.528;2023-05-29T05:52:33;14.00;73.20
40622;DHT22;26324;52.040;11.528;2023-05-29T05:55:04;14.10;73.10
40622;DHT22;26324;52.040;11.528;2023-05-29T05:57:34;14.30;71.80
40622;DHT22;26324;52.040;11.528;2023-05-29T06:00:06;14.30;71.80
40622;DHT22;26324;52.040;11.528;2023-05-29T06:02:46;14.50;71.90
40622;DHT22;26324;52.040;11.528;2023-05-29T06:05:28;14.60;71.30
40622;DHT22;26324;52.040;11.528;2023-05-29T06:07:57;14.70;71.50
40622;DHT22;26324;52.040;11.528;2023-05-29T06:10:25;14.90;71.00
40622;DHT22;26324;52.040;11.528;2023-05-29T06:12:55;15.10;70.40
40622;DHT22;26324;52.040;11.528;2023-05-29T06:15:28;15.20;70.10
40622;DHT22;26324;52.040;11.528;2023-05-29T06:17:55;15.30;70.00
40622;DHT22;26324;52.040;11.528;2023-05-29T06:20:25;15.30;70.00
40622;DHT22;26324;52.040;11.528;2023-05-29T06:22:52;15.30;70.60
40622;DHT22;26324;52.040;11.528;2023-05-29T06:25:19;15.40;69.80
40622;DHT22;26324;52.040;11.528;2023-05-29T06:27:47;15.40;69.10
40622;DHT22;26324;52.040;11.528;2023-05-29T06:30:15;15.50;68.50
40622;DHT22;26324;52.040;11.528;2023-05-29T06:32:42;15.60;68.00
40622;DHT22;26324;52.040;11.528;2023-05-29T06:35:10;15.60;67.60
40622;DHT22;26324;52.040;11.528;2023-05-29T06:37:38;15.70;66.90
40622;DHT22;26324;52.040;11.528;2023-05-29T06:40:06;15.80;65.70
40622;DHT22;26324;52.040;11.528;2023-05-29T06:42:34;15.90;66.90
40622;DHT22;26324;52.040;11.528;2023-05-29T06:45:08;16.00;64.70
40622;DHT22;26324;52.040;11.528;2023-05-29T06:47:35;16.20;65.10
40622;DHT22;26324;52.040;11.528;2023-05-29T06:50:03;16.40;64.80
40622;DHT22;26324;52.040;11.528;2023-05-29T06:52:30;16.60;63.90
40622;DHT22;26324;52.040;11.528;2023-05-29T06:55:18;16.80;62.10
40622;DHT22;26324;52.040;11.528;2023-05-29T06:57:46;17.00;62.70
40622;DHT22;26324;52.040;11.528;2023-05-29T07:00:14;17.10;62.00
40622;DHT22;26324;52.040;11.528;2023-05-29T07:02:49;17.30;62.10
40622;DHT22;26324;52.040;11.528;2023-05-29T07:05:18;17.40;61.40
40622;DHT22;26324;52.040;11.528;2023-05-29T07:07:45;17.50;59.70
40622;DHT22;26324;52.040;11.528;2023-05-29T07:10:13;17.50;59.70
40622;DHT22;26324;52.040;11.528;2023-05-29T07:12:40;17.60;60.70
40622;DHT22;26324;52.040;11.528;2023-05-29T07:15:09;17.60;60.20
40622;DHT22;26324;52.040;11.528;2023-05-29T07:17:39;17.70;60.90
40622;DHT22;26324;52.040;11.528;2023-05-29T07:20:16;17.70;59.30
40622;DHT22;26324;52.040;11.528;2023-05-29T07:22:47;17.80;60.00
40622;DHT22;26324;52.040;11.528;2023-05-29T07:25:14;17.90;58.10
40622;DHT22;26324;52.040;11.528;2023-05-29T07:27:42;18.00;59.80
40622;DHT22;26324;52.040;11.528;2023-05-29T07:30:10;18.10;57.90
40622;DHT22;26324;52.040;11.528;2023-05-29T07:32:38;18.30;57.00
40622;DHT22;26324;52.040;11.528;2023-05-29T07:35:05;18.40;56.80
40622;DHT22;26324;52.040;11.528;2023-05-29T07:37:42;18.50;56.90
40622;DHT22;26324;52.040;11.528;2023-05-29T07:40:15;18.60;56.70
40622;DHT22;26324;52.040;11.528;2023-05-29T07:43:01;18.70;54.70
40622;DHT22;26324;52.040;11.528;2023-05-29T07:45:41;18.80;55.80
40622;DHT22;26324;52.040;11.528;2023-05-29T07:48:09;18.80;56.50
40622;DHT22;26324;52.040;11.528;2023-05-29T07:50:37;18.80;54.70
40622;DHT22;26324;52.040;11.528;2023-05-29T07:53:05;18.80;58.40
40622;DHT22;26324;52.040;11.528;2023-05-29T07:55:34;19.00;54.00
40622;DHT22;26324;52.040;11.528;2023-05-29T07:58:05;19.10;54.90
40622;DHT22;26324;52.040;11.528;2023-05-29T08:00:32;19.20;54.00
40622;DHT22;26324;52.040;11.528;2023-05-29T08:03:02;19.30;54.70
40622;DHT22;26324;52.040;11.528;2023-05-29T08:05:30;19.40;54.50
40622;DHT22;26324;52.040;11.528;2023-05-29T08:08:01;19.20;55.50
40622;DHT22;26324;52.040;11.528;2023-05-29T08:10:31;19.40;54.00
40622;DHT22;26324;52.040;11.528;2023-05-29T08:12:58;19.50;53.60
40622;DHT22;26324;52.040;11.528;2023-05-29T08:15:25;19.70;53.10
40622;DHT22;26324;52.040;11.528;2023-05-29T08:17:53;19.90;52.80
40622;DHT22;26324;52.040;11.528;2023-05-29T08:20:20;20.00;54.20
40622;DHT22;26324;52.040;11.528;2023-05-29T08:25:16;20.30;53.30
40622;DHT22;26324;52.040;11.528;2023-05-29T08:27:43;20.40;51.20
40622;DHT22;26324;52.040;11.528;2023-05-29T08:30:11;20.50;52.30
40622;DHT22;26324;52.040;11.528;2023-05-29T08:32:42;20.50;51.60
40622;DHT22;26324;52.040;11.528;2023-05-29T08:35:09;20.60;50.90
40622;DHT22;26324;52.040;11.528;2023-05-29T08:37:36;20.80;50.70
40622;DHT22;26324;52.040;11.528;2023-05-29T08:42:39;21.00;48.30
40622;DHT22;26324;52.040;11.528;2023-05-29T08:45:11;20.90;48.00
40622;DHT22;26324;52.040;11.528;2023-05-29T08:47:40;20.80;50.70
40622;DHT22;26324;52.040;11.528;2023-05-29T08:50:14;20.80;51.10
40622;DHT22;26324;52.040;11.528;2023-05-29T08:52:42;20.90;48.90
40622;DHT22;26324;52.040;11.528;2023-05-29T08:55:10;21.00;51.20
40622;DHT22;26324;52.040;11.528;2023-05-29T08:57:38;21.20;48.40
40622;DHT22;26324;52.040;11.528;2023-05-29T09:00:07;21.50;48.30
40622;DHT22;26324;52.040;11.528;2023-05-29T09:02:39;21.70;49.50
40622;DHT22;26324;52.040;11.528;2023-05-29T09:10:11;21.50;47.30
40622;DHT22;26324;52.040;11.528;2023-05-29T09:12:38;21.40;47.70
40622;DHT22;26324;52.040;11.528;2023-05-29T09:15:25;21.30;49.40
40622;DHT22;26324;52.040;11.528;2023-05-29T09:17:54;21.60;50.50
40622;DHT22;26324;52.040;11.528;2023-05-29T09:20:24;21.70;48.90
40622;DHT22;26324;52.040;11.528;2023-05-29T09:23:05;21.50;50.80
40622;DHT22;26324;52.040;11.528;2023-05-29T09:25:34;21.50;48.60
40622;DHT22;26324;52.040;11.528;2023-05-29T09:28:04;21.80;50.90
40622;DHT22;26324;52.040;11.528;2023-05-29T09:30:40;22.00;48.20
40622;DHT22;26324;52.040;11.528;2023-05-29T09:33:09;21.90;48.70
40622;DHT22;26324;52.040;11.528;2023-05-29T09:35:47;22.10;48.90
40622;DHT22;26324;52.040;11.528;2023-05-29T09:38:16;22.30;49.00
40622;DHT22;26324;52.040;11.528;2023-05-29T09:41:04;22.50;49.10
40622;DHT22;26324;52.040;11.528;2023-05-29T09:43:32;22.40;48.60
40622;DHT22;26324;52.040;11.528;2023-05-29T09:46:00;22.60;45.50
40622;DHT22;26324;52.040;11.528;2023-05-29T09:48:29;22.50;48.60
40622;DHT22;26324;52.040;11.528;2023-05-29T09:50:56;22.40;46.90
40622;DHT22;26324;52.040;11.528;2023-05-29T09:53:26;22.50;44.90
40622;DHT22;26324;52.040;11.528;2023-05-29T09:55:56;22.40;46.40
40622;DHT22;26324;52.040;11.528;2023-05-29T09:58:27;22.40;47.50
40622;DHT22;26324;52.040;11.528;2023-05-29T10:00:55;22.50;46.60
40622;DHT22;26324;52.040;11.528;2023-05-29T10:03:25;22.70;47.20
40622;DHT22;26324;52.040;11.528;2023-05-29T10:05:55;23.00;48.40
40622;DHT22;26324;52.040;11.528;2023-05-29T10:08:25;23.10;47.80
40622;DHT22;26324;52.040;11.528;2023-05-29T10:11:01;23.10;46.50
40622;DHT22;26324;52.040;11.528;2023-05-29T10:13:41;23.20;45.00
40622;DHT22;26324;52.040;11.528;2023-05-29T10:16:11;23.10;46.80
40622;DHT22;26324;52.040;11.528;2023-05-29T10:18:44;23.40;47.90
40622;DHT22;26324;52.040;11.528;2023-05-29T10:21:17;23.80;44.10
40622;DHT22;26324;52.040;11.528;2023-05-29T10:23:48;24.00;44.60
40622;DHT22;26324;52.040;11.528;2023-05-29T10:26:19;24.10;45.20
40622;DHT22;26324;52.040;11.528;2023-05-29T10:29:05;24.00;44.70
40622;DHT22;26324;52.040;11.528;2023-05-29T10:35:05;24.00;42.50
40622;DHT22;26324;52.040;11.528;2023-05-29T10:38:02;23.80;41.30
40622;DHT22;26324;52.040;11.528;2023-05-29T10:40:37;23.80;44.10
40622;DHT22;26324;52.040;11.528;2023-05-29T10:43:05;23.90;43.90
40622;DHT22;26324;52.040;11.528;2023-05-29T10:50:47;24.00;45.70
40622;DHT22;26324;52.040;11.528;2023-05-29T10:55:45;24.00;43.20
40622;DHT22;26324;52.040;11.528;2023-05-29T10:58:23;24.20;44.00
40622;DHT22;26324;52.040;11.528;2023-05-29T11:00:52;24.60;46.10
40622;DHT22;26324;52.040;11.528;2023-05-29T11:03:26;24.80;44.50
40622;DHT22;26324;52.040;11.528;2023-05-29T11:06:04;24.60;43.40
40622;DHT22;26324;52.040;11.528;2023-05-29T11:08:53;24.60;44.20
40622;DHT22;26324;52.040;11.528;2023-05-29T11:13:57;24.60;42.50
40622;DHT22;26324;52.040;11.528;2023-05-29T11:18:58;24.50;43.40
40622;DHT22;26324;52.040;11.528;2023-05-29T11:21:53;24.70;43.40
40622;DHT22;26324;52.040;11.528;2023-05-29T11:24:26;24.60;41.20
40622;DHT22;26324;52.040;11.528;2023-05-29T11:26:57;24.50;43.00
40622;DHT22;26324;52.040;11.528;2023-05-29T11:29:28;24.50;43.20
40622;DHT22;26324;52.040;11.528;2023-05-29T11:32:02;24.20;42.40
40622;DHT22;26324;52.040;11.528;2023-05-29T11:34:31;24.00;42.90
40622;DHT22;26324;52.040;11.528;2023-05-29T11:37:00;23.70;44.20
40622;DHT22;26324;52.040;11.528;2023-05-29T11:39:28;23.60;47.10
40622;DHT22;26324;52.040;11.528;2023-05-29T11:41:56;23.80;46.20
40622;DHT22;26324;52.040;11.528;2023-05-29T11:44:24;23.90;44.00
40622;DHT22;26324;52.040;11.528;2023-05-29T11:47:05;24.00;44.70
40622;DHT22;26324;52.040;11.528;2023-05-29T11:49:35;24.10;41.90
40622;DHT22;26324;52.040;11.528;2023-05-29T11:52:12;24.10;43.90
40622;DHT22;26324;52.040;11.528;2023-05-29T11:54:44;24.30;42.50
40622;DHT22;26324;52.040;11.528;2023-05-29T11:57:19;24.30;41.10
40622;DHT22;26324;52.040;11.528;2023-05-29T11:59:49;24.20;44.10
40622;DHT22;26324;52.040;11.528;2023-05-29T12:02:16;24.00;43.90
40622;DHT22;26324;52.040;11.528;2023-05-29T12:04:44;24.20;46.60
40622;DHT22;26324;52.040;11.528;2023-05-29T12:07:19;24.40;43.20
40622;DHT22;26324;52.040;11.528;2023-05-29T12:09:47;24.10;43.00
40622;DHT22;26324;52.040;11.528;2023-05-29T12:12:18;24.10;42.90
40622;DHT22;26324;52.040;11.528;2023-05-29T12:14:50;24.00;42.70
40622;DHT22;26324;52.040;11.528;2023-05-29T12:17:19;23.80;42.70
40622;DHT22;26324;52.040;11.528;2023-05-29T12:19:46;23.60;43.90
40622;DHT22;26324;52.040;11.528;2023-05-29T12:22:14;23.60;43.20
40622;DHT22;26324;52.040;11.528;2023-05-29T12:24:41;23.50;44.90
40622;DHT22;26324;52.040;11.528;2023-05-29T12:27:10;23.50;43.70
40622;DHT22;26324;52.040;11.528;2023-05-29T12:29:37;23.70;42.30
40622;DHT22;26324;52.040;11.528;2023-05-29T12:32:09;24.10;40.50
40622;DHT22;26324;52.040;11.528;2023-05-29T12:34:37;24.40;42.10
40622;DHT22;26324;52.040;11.528;2023-05-29T12:37:09;24.30;42.90
40622;DHT22;26324;52.040;11.528;2023-05-29T12:39:40;24.50;41.60
40622;DHT22;26324;52.040;11.528;2023-05-29T12:42:08;24.60;39.20
40622;DHT22;26324;52.040;11.528;2023-05-29T12:44:37;24.80;41.50
40622;DHT22;26324;52.040;11.528;2023-05-29T12:47:05;25.10;40.10
40622;DHT22;26324;52.040;11.528;2023-05-29T12:49:36;25.60;40.60
40622;DHT22;26324;52.040;11.528;2023-05-29T12:52:08;26.10;39.40
40622;DHT22;26324;52.040;11.528;2023-05-29T12:54:37;26.50;35.80
40622;DHT22;26324;52.040;11.528;2023-05-29T12:57:06;26.60;37.60
40622;DHT22;26324;52.040;11.528;2023-05-29T12:59:33;26.70;39.50
40622;DHT22;26324;52.040;11.528;2023-05-29T13:02:01;26.70;37.10
40622;DHT22;26324;52.040;11.528;2023-05-29T13:04:29;26.20;37.20
40622;DHT22;26324;52.040;11.528;2023-05-29T13:06:57;26.00;37.50
40622;DHT22;26324;52.040;11.528;2023-05-29T13:09:25;26.10;37.50
40622;DHT22;26324;52.040;11.528;2023-05-29T13:11:53;26.20;37.30
40622;DHT22;26324;52.040;11.528;2023-05-29T13:14:20;26.30;36.50
40622;DHT22;26324;52.040;11.528;2023-05-29T13:16:48;26.50;35.90
40622;DHT22;26324;52.040;11.528;2023-05-29T13:19:15;26.70;36.00
40622;DHT22;26324;52.040;11.528;2023-05-29T13:21:42;27.00;35.80
40622;DHT22;26324;52.040;11.528;2023-05-29T13:24:15;27.20;34.30
40622;DHT22;26324;52.040;11.528;2023-05-29T13:26:43;27.30;33.30
40622;DHT22;26324;52.040;11.528;2023-05-29T13:29:10;27.30;34.80
40622;DHT22;26324;52.040;11.528;2023-05-29T13:31:37;27.50;34.80
40622;DHT22;26324;52.040;11.528;2023-05-29T13:34:05;28.00;33.10
40622;DHT22;26324;52.040;11.528;2023-05-29T13:36:32;28.40;31.20
40622;DHT22;26324;52.040;11.528;2023-05-29T13:38:59;28.60;31.80
40622;DHT22;26324;52.040;11.528;2023-05-29T13:41:27;28.90;29.90
40622;DHT22;26324;52.040;11.528;2023-05-29T13:43:54;29.10;30.40
40622;DHT22;26324;52.040;11.528;2023-05-29T13:46:22;29.50;29.20
40622;DHT22;26324;52.040;11.528;2023-05-29T13:48:49;29.80;28.80
40622;DHT22;26324;52.040;11.528;2023-05-29T13:51:16;29.70;27.50
40622;DHT22;26324;52.040;11.528;2023-05-29T13:53:44;29.60;28.20
40622;DHT22;26324;52.040;11.528;2023-05-29T13:56:11;29.60;28.60
40622;DHT22;26324;52.040;11.528;2023-05-29T13:58:38;29.10;29.00
40622;DHT22;26324;52.040;11.528;2023-05-29T14:01:06;29.10;30.40
40622;DHT22;26324;52.040;11.528;2023-05-29T14:03:33;29.50;29.30
40622;DHT22;26324;52.040;11.528;2023-05-29T14:06:01;30.10;28.20
40622;DHT22;26324;52.040;11.528;2023-05-29T14:08:32;30.70;28.70
40622;DHT22;26324;52.040;11.528;2023-05-29T14:10:59;31.00;26.60
40622;DHT22;26324;52.040;11.528;2023-05-29T14:13:27;30.50;25.40
40622;DHT22;26324;52.040;11.528;2023-05-29T14:15:54;29.80;29.20
40622;DHT22;26324;52.040;11.528;2023-05-29T14:18:23;29.60;29.40
40622;DHT22;26324;52.040;11.528;2023-05-29T14:20:51;29.60;29.80
40622;DHT22;26324;52.040;11.528;2023-05-29T14:23:18;29.50;30.10
40622;DHT22;26324;52.040;11.528;2023-05-29T14:25:46;29.60;29.60
40622;DHT22;26324;52.040;11.528;2023-05-29T14:28:13;29.50;29.30
40622;DHT22;26324;52.040;11.528;2023-05-29T14:30:40;29.40;28.70
40622;DHT22;26324;52.040;11.528;2023-05-29T14:33:08;30.00;28.80
40622;DHT22;26324;52.040;11.528;2023-05-29T14:35:35;30.90;28.60
40622;DHT22;26324;52.040;11.528;2023-05-29T14:38:02;31.30;27.60
40622;DHT22;26324;52.040;11.528;2023-05-29T14:40:30;31.60;25.60
40622;DHT22;26324;52.040;11.528;2023-05-29T14:43:01;31.50;25.20
40622;DHT22;26324;52.040;11.528;2023-05-29T14:45:28;31.50;27.80
40622;DHT22;26324;52.040;11.528;2023-05-29T14:47:56;31.90;27.10
40622;DHT22;26324;52.040;11.528;2023-05-29T14:50:23;32.40;25.30
40622;DHT22;26324;52.040;11.528;2023-05-29T14:52:50;32.60;25.40
40622;DHT22;26324;52.040;11.528;2023-05-29T14:55:18;32.60;24.50
40622;DHT22;26324;52.040;11.528;2023-05-29T14:57:46;31.80;24.10
40622;DHT22;26324;52.040;11.528;2023-05-29T15:00:14;30.80;26.40
40622;DHT22;26324;52.040;11.528;2023-05-29T15:02:43;30.30;26.40
40622;DHT22;26324;52.040;11.528;2023-05-29T15:05:10;30.20;26.30
40622;DHT22;26324;52.040;11.528;2023-05-29T15:07:39;30.70;25.90
40622;DHT22;26324;52.040;11.528;2023-05-29T15:10:06;31.50;26.30
40622;DHT22;26324;52.040;11.528;2023-05-29T15:12:34;32.00;24.20
40622;DHT22;26324;52.040;11.528;2023-05-29T15:15:02;32.70;23.20
40622;DHT22;26324;52.040;11.528;2023-05-29T15:17:30;32.70;23.40
40622;DHT22;26324;52.040;11.528;2023-05-29T15:19:58;32.70;22.70
40622;DHT22;26324;52.040;11.528;2023-05-29T15:22:27;32.30;23.90
40622;DHT22;26324;52.040;11.528;2023-05-29T15:24:55;31.90;25.30
40622;DHT22;26324;52.040;11.528;2023-05-29T15:27:22;31.80;24.50
40622;DHT22;26324;52.040;11.528;2023-05-29T15:29:54;31.60;25.30
40622;DHT22;26324;52.040;11.528;2023-05-29T15:32:34;31.90;26.50
40622;DHT22;26324;52.040;11.528;2023-05-29T15:35:01;32.40;24.60
40622;DHT22;26324;52.040;11.528;2023-05-29T15:37:29;32.80;23.70
40622;DHT22;26324;52.040;11.528;2023-05-29T15:39:56;33.00;22.30
40622;DHT22;26324;52.040;11.528;2023-05-29T15:42:23;33.10;22.90
40622;DHT22;26324;52.040;11.528;2023-05-29T15:44:51;33.40;22.50
40622;DHT22;26324;52.040;11.528;2023-05-29T15:47:18;32.80;21.80
40622;DHT22;26324;52.040;11.528;2023-05-29T15:49:45;32.60;22.60
40622;DHT22;26324;52.040;11.528;2023-05-29T15:52:13;32.50;24.30
40622;DHT22;26324;52.040;11.528;2023-05-29T15:54:40;33.00;24.30
40622;DHT22;26324;52.040;11.528;2023-05-29T15:57:08;33.20;22.90
40622;DHT22;26324;52.040;11.528;2023-05-29T15:59:35;32.60;22.00